AVA8545 SKBQ-SKRG
Flight info
| Callsign | AVA8545 |
|---|---|
| Flight time | 0h 53m |
| Altitude | 35000 |
| Route | VOVLU2D VOVLU UW3 BIVIG BIVIG3C |
| Aircraft | A320/M-SDE3FGHIRWY/LB1 |
Departure
| Time | 2026-05-07 13:34 |
|---|---|
| Airport | Ernesto Cortissoz International Airport (SKBQ) |
Arrival
| Time | 2026-05-07 14:28 |
|---|---|
| Airport | Jose Maria Córdova International Airport (SKRG) |
| Time | Latitude | Longitude | Altitude | Speed | Heading |
|---|---|---|---|---|---|
| 2026-05-07 12:51 | 10.88579 | -74.77810 | 97 ft | 0 kts | 130° |
| 2026-05-07 13:22 | 10.88581 | -74.77813 | 96 ft | 3 kts | 130° |
| 2026-05-07 13:23 | 10.88594 | -74.77829 | 96 ft | 3 kts | 130° |
| 2026-05-07 13:23 | 10.88611 | -74.77843 | 96 ft | 3 kts | 171° |
| 2026-05-07 13:23 | 10.88630 | -74.77839 | 98 ft | 3 kts | 217° |
| 2026-05-07 13:23 | 10.88648 | -74.77824 | 98 ft | 3 kts | 219° |
| 2026-05-07 13:24 | 10.88665 | -74.77809 | 96 ft | 2 kts | 219° |
| 2026-05-07 13:24 | 10.88667 | -74.77808 | 96 ft | 0 kts | 220° |
| 2026-05-07 13:28 | 10.88631 | -74.77838 | 96 ft | 11 kts | 220° |
| 2026-05-07 13:28 | 10.88570 | -74.77890 | 96 ft | 10 kts | 220° |
| 2026-05-07 13:28 | 10.88571 | -74.77931 | 99 ft | 7 kts | 299° |
| 2026-05-07 13:28 | 10.88577 | -74.77960 | 96 ft | 7 kts | 253° |
| 2026-05-07 13:29 | 10.88532 | -74.78000 | 97 ft | 10 kts | 218° |
| 2026-05-07 13:29 | 10.88472 | -74.78051 | 97 ft | 13 kts | 220° |
| 2026-05-07 13:29 | 10.88421 | -74.78134 | 98 ft | 16 kts | 265° |
| 2026-05-07 13:29 | 10.88437 | -74.78248 | 98 ft | 16 kts | 279° |
| 2026-05-07 13:30 | 10.88387 | -74.78332 | 99 ft | 16 kts | 220° |
| 2026-05-07 13:30 | 10.88295 | -74.78410 | 101 ft | 18 kts | 220° |
| 2026-05-07 13:30 | 10.88202 | -74.78489 | 102 ft | 17 kts | 219° |
| 2026-05-07 13:30 | 10.88103 | -74.78573 | 104 ft | 20 kts | 220° |
| 2026-05-07 13:31 | 10.88001 | -74.78660 | 107 ft | 20 kts | 221° |
| 2026-05-07 13:31 | 10.87922 | -74.78735 | 107 ft | 11 kts | 240° |
| 2026-05-07 13:31 | 10.87912 | -74.78819 | 109 ft | 13 kts | 265° |
| 2026-05-07 13:31 | 10.87906 | -74.78892 | 110 ft | 6 kts | 265° |
| 2026-05-07 13:32 | 10.87904 | -74.78918 | 111 ft | 4 kts | 268° |
| 2026-05-07 13:32 | 10.87923 | -74.78956 | 110 ft | 4 kts | 315° |
| 2026-05-07 13:32 | 10.87953 | -74.78953 | 108 ft | 5 kts | 31° |
| 2026-05-07 13:32 | 10.87979 | -74.78934 | 109 ft | 1 kts | 39° |
| 2026-05-07 13:33 | 10.87992 | -74.78923 | 107 ft | 13 kts | 39° |
| 2026-05-07 13:33 | 10.88272 | -74.78682 | 104 ft | 90 kts | 40° |
| 2026-05-07 13:33 | 10.88909 | -74.78135 | 98 ft | 147 kts | 40° |
| 2026-05-07 13:34 | 10.89810 | -74.77361 | 246 ft | 182 kts | 40° |
| 2026-05-07 13:34 | 10.91721 | -74.75728 | 1648 ft | 179 kts | 43° |
| 2026-05-07 13:34 | 10.92669 | -74.74921 | 2116 ft | 184 kts | 42° |
| 2026-05-07 13:35 | 10.93723 | -74.74032 | 2380 ft | 204 kts | 43° |
| 2026-05-07 13:35 | 10.94915 | -74.73122 | 2617 ft | 225 kts | 25° |
| 2026-05-07 13:35 | 10.96517 | -74.72943 | 3151 ft | 238 kts | 345° |
| 2026-05-07 13:35 | 10.97994 | -74.73804 | 3555 ft | 257 kts | 316° |
| 2026-05-07 13:36 | 10.99184 | -74.75235 | 4110 ft | 269 kts | 305° |
| 2026-05-07 13:36 | 11.00243 | -74.76835 | 4900 ft | 275 kts | 304° |
| 2026-05-07 13:36 | 11.01289 | -74.78459 | 5747 ft | 278 kts | 306° |
| 2026-05-07 13:36 | 11.02392 | -74.80102 | 6599 ft | 281 kts | 307° |
| 2026-05-07 13:37 | 11.03540 | -74.81727 | 7389 ft | 284 kts | 307° |
| 2026-05-07 13:37 | 11.04733 | -74.83351 | 8161 ft | 288 kts | 308° |
| 2026-05-07 13:37 | 11.05877 | -74.85043 | 8926 ft | 294 kts | 296° |
| 2026-05-07 13:37 | 11.06410 | -74.87034 | 9674 ft | 299 kts | 272° |
| 2026-05-07 13:38 | 11.06130 | -74.89135 | 10284 ft | 308 kts | 250° |
| 2026-05-07 13:38 | 11.04968 | -74.91038 | 10492 ft | 329 kts | 223° |
| 2026-05-07 13:38 | 11.03178 | -74.92604 | 10686 ft | 350 kts | 219° |
| 2026-05-07 13:38 | 11.01265 | -74.94214 | 11162 ft | 360 kts | 218° |
| 2026-05-07 13:39 | 10.99315 | -74.95855 | 11780 ft | 366 kts | 218° |
| 2026-05-07 13:39 | 10.97349 | -74.97522 | 12422 ft | 370 kts | 218° |
| 2026-05-07 13:39 | 10.95365 | -74.99218 | 13042 ft | 374 kts | 218° |
| 2026-05-07 13:39 | 10.93363 | -75.00931 | 13627 ft | 379 kts | 218° |
| 2026-05-07 13:40 | 10.91328 | -75.02675 | 14115 ft | 385 kts | 217° |
| 2026-05-07 13:40 | 10.89286 | -75.04422 | 14613 ft | 390 kts | 218° |
| 2026-05-07 13:40 | 10.87102 | -75.06098 | 15154 ft | 392 kts | 209° |
| 2026-05-07 13:40 | 10.84628 | -75.07294 | 15700 ft | 393 kts | 197° |
| 2026-05-07 13:41 | 10.81967 | -75.07932 | 16261 ft | 394 kts | 184° |
| 2026-05-07 13:41 | 10.79233 | -75.07989 | 16785 ft | 394 kts | 172° |
| 2026-05-07 13:41 | 10.77436 | -75.07717 | 17123 ft | 394 kts | 167° |
| 2026-05-07 13:41 | 10.73797 | -75.07047 | 17806 ft | 400 kts | 167° |
| 2026-05-07 13:42 | 10.71078 | -75.06550 | 18282 ft | 404 kts | 167° |
| 2026-05-07 13:42 | 10.68292 | -75.06048 | 18721 ft | 409 kts | 167° |
| 2026-05-07 13:42 | 10.66388 | -75.05708 | 19011 ft | 411 kts | 167° |
| 2026-05-07 13:42 | 10.63553 | -75.05201 | 19438 ft | 415 kts | 167° |
| 2026-05-07 13:43 | 10.60729 | -75.04696 | 19857 ft | 418 kts | 167° |
| 2026-05-07 13:43 | 10.57849 | -75.04180 | 20275 ft | 422 kts | 167° |
| 2026-05-07 13:43 | 10.54941 | -75.03659 | 20704 ft | 425 kts | 167° |
| 2026-05-07 13:43 | 10.52014 | -75.03133 | 21124 ft | 429 kts | 167° |
| 2026-05-07 13:44 | 10.49063 | -75.02604 | 21537 ft | 432 kts | 167° |
| 2026-05-07 13:44 | 10.46084 | -75.02071 | 21946 ft | 435 kts | 167° |
| 2026-05-07 13:44 | 10.43088 | -75.01537 | 22344 ft | 439 kts | 167° |
| 2026-05-07 13:44 | 10.40070 | -75.01000 | 22727 ft | 442 kts | 167° |
| 2026-05-07 13:45 | 10.37066 | -75.00465 | 23106 ft | 445 kts | 167° |
| 2026-05-07 13:45 | 10.34001 | -74.99917 | 23478 ft | 448 kts | 167° |
| 2026-05-07 13:45 | 10.30913 | -74.99362 | 23797 ft | 451 kts | 167° |
| 2026-05-07 13:45 | 10.27812 | -74.98803 | 24125 ft | 453 kts | 167° |
| 2026-05-07 13:46 | 10.24699 | -74.98241 | 24445 ft | 455 kts | 167° |
| 2026-05-07 13:46 | 10.21563 | -74.97677 | 24770 ft | 457 kts | 167° |
| 2026-05-07 13:46 | 10.18464 | -74.97122 | 25102 ft | 458 kts | 168° |
| 2026-05-07 13:46 | 10.15315 | -74.96562 | 25421 ft | 460 kts | 167° |
| 2026-05-07 13:47 | 10.12133 | -74.95994 | 25737 ft | 462 kts | 168° |
| 2026-05-07 13:47 | 10.08955 | -74.95428 | 26048 ft | 464 kts | 168° |
| 2026-05-07 13:47 | 10.05791 | -74.94865 | 26357 ft | 466 kts | 168° |
| 2026-05-07 13:47 | 10.02596 | -74.94299 | 26676 ft | 468 kts | 168° |
| 2026-05-07 13:48 | 9.99381 | -74.93727 | 26999 ft | 470 kts | 168° |
| 2026-05-07 13:48 | 9.96154 | -74.93148 | 27317 ft | 471 kts | 168° |
| 2026-05-07 13:48 | 9.92912 | -74.92564 | 27625 ft | 473 kts | 168° |
| 2026-05-07 13:48 | 9.89665 | -74.91984 | 27930 ft | 475 kts | 168° |
| 2026-05-07 13:49 | 9.86398 | -74.91405 | 28223 ft | 477 kts | 168° |
| 2026-05-07 13:49 | 9.83157 | -74.90826 | 28543 ft | 477 kts | 169° |
| 2026-05-07 13:49 | 9.79881 | -74.90241 | 28863 ft | 478 kts | 169° |
| 2026-05-07 13:49 | 9.76596 | -74.89655 | 29155 ft | 479 kts | 169° |
| 2026-05-07 13:50 | 9.73306 | -74.89070 | 29429 ft | 481 kts | 169° |
| 2026-05-07 13:50 | 9.69999 | -74.88480 | 29701 ft | 482 kts | 169° |
| 2026-05-07 13:50 | 9.66692 | -74.87888 | 29957 ft | 483 kts | 169° |
| 2026-05-07 13:50 | 9.63408 | -74.87301 | 30190 ft | 484 kts | 170° |
| 2026-05-07 13:51 | 9.60084 | -74.86709 | 30497 ft | 484 kts | 170° |
| 2026-05-07 13:51 | 9.56771 | -74.86120 | 30803 ft | 483 kts | 170° |
| 2026-05-07 13:51 | 9.53448 | -74.85530 | 31100 ft | 483 kts | 170° |
| 2026-05-07 13:51 | 9.50138 | -74.85001 | 31389 ft | 482 kts | 174° |
| 2026-05-07 13:52 | 9.46785 | -74.84873 | 31675 ft | 482 kts | 180° |
| 2026-05-07 13:52 | 9.43426 | -74.84851 | 31957 ft | 483 kts | 180° |
| 2026-05-07 13:52 | 9.40060 | -74.84822 | 32261 ft | 482 kts | 180° |
| 2026-05-07 13:52 | 9.36754 | -74.84790 | 32577 ft | 481 kts | 180° |
| 2026-05-07 13:53 | 9.33392 | -74.84758 | 32881 ft | 480 kts | 180° |
| 2026-05-07 13:53 | 9.30040 | -74.84727 | 33168 ft | 481 kts | 181° |
| 2026-05-07 13:53 | 9.26707 | -74.85001 | 33469 ft | 480 kts | 189° |
| 2026-05-07 13:53 | 9.23442 | -74.85502 | 33786 ft | 480 kts | 189° |
| 2026-05-07 13:54 | 9.20146 | -74.86018 | 34062 ft | 479 kts | 189° |
| 2026-05-07 13:54 | 9.16843 | -74.86540 | 34346 ft | 479 kts | 189° |
| 2026-05-07 13:54 | 9.13551 | -74.87062 | 34626 ft | 478 kts | 190° |
| 2026-05-07 13:54 | 9.10268 | -74.87576 | 34976 ft | 476 kts | 190° |
| 2026-05-07 13:55 | 9.07034 | -74.88077 | 35295 ft | 473 kts | 190° |
| 2026-05-07 13:55 | 9.03777 | -74.88579 | 35568 ft | 472 kts | 190° |
| 2026-05-07 13:55 | 9.00523 | -74.89079 | 35829 ft | 472 kts | 190° |
| 2026-05-07 13:55 | 8.97273 | -74.89579 | 36084 ft | 471 kts | 190° |
| 2026-05-07 13:56 | 8.94029 | -74.90076 | 36334 ft | 471 kts | 190° |
| 2026-05-07 13:56 | 8.90777 | -74.90578 | 36578 ft | 470 kts | 190° |
| 2026-05-07 13:56 | 8.87573 | -74.91076 | 36808 ft | 470 kts | 190° |
| 2026-05-07 13:56 | 8.84321 | -74.91583 | 36914 ft | 471 kts | 190° |
| 2026-05-07 13:57 | 8.81113 | -74.92082 | 36931 ft | 471 kts | 190° |
| 2026-05-07 13:57 | 8.74641 | -74.93084 | 36927 ft | 468 kts | 191° |
| 2026-05-07 13:58 | 8.68204 | -74.94079 | 36929 ft | 468 kts | 190° |
| 2026-05-07 13:58 | 8.61766 | -74.95068 | 36932 ft | 468 kts | 190° |
| 2026-05-07 13:59 | 8.55330 | -74.96053 | 36933 ft | 468 kts | 190° |
| 2026-05-07 13:59 | 8.48886 | -74.97050 | 36937 ft | 468 kts | 191° |
| 2026-05-07 14:00 | 8.42490 | -74.98048 | 36934 ft | 468 kts | 191° |
| 2026-05-07 14:00 | 8.36043 | -74.99046 | 36937 ft | 467 kts | 190° |
| 2026-05-07 14:01 | 8.29603 | -75.00041 | 36944 ft | 467 kts | 190° |
| 2026-05-07 14:01 | 8.23202 | -75.01028 | 36947 ft | 467 kts | 190° |
| 2026-05-07 14:02 | 8.16786 | -75.02015 | 36944 ft | 467 kts | 190° |
| 2026-05-07 14:02 | 8.10339 | -75.03008 | 36955 ft | 468 kts | 191° |
| 2026-05-07 14:03 | 8.03911 | -75.04003 | 36962 ft | 469 kts | 190° |
| 2026-05-07 14:03 | 7.97464 | -75.04988 | 36967 ft | 467 kts | 190° |
| 2026-05-07 14:04 | 7.91031 | -75.05961 | 36953 ft | 470 kts | 190° |
| 2026-05-07 14:04 | 7.84573 | -75.06976 | 36956 ft | 469 kts | 189° |
| 2026-05-07 14:05 | 7.78101 | -75.07985 | 36961 ft | 471 kts | 189° |
| 2026-05-07 14:05 | 7.71653 | -75.08962 | 36968 ft | 467 kts | 190° |
| 2026-05-07 14:06 | 7.65284 | -75.09930 | 36918 ft | 460 kts | 189° |
| 2026-05-07 14:06 | 7.58976 | -75.10874 | 36928 ft | 460 kts | 189° |
| 2026-05-07 14:07 | 7.52595 | -75.11851 | 36922 ft | 463 kts | 189° |
| 2026-05-07 14:07 | 7.46262 | -75.12810 | 36949 ft | 464 kts | 189° |
| 2026-05-07 14:08 | 7.39867 | -75.13786 | 36964 ft | 465 kts | 189° |
| 2026-05-07 14:08 | 7.33464 | -75.14759 | 36991 ft | 465 kts | 189° |
| 2026-05-07 14:09 | 7.27046 | -75.15726 | 36990 ft | 466 kts | 189° |
| 2026-05-07 14:09 | 7.20625 | -75.16697 | 36988 ft | 466 kts | 190° |
| 2026-05-07 14:10 | 7.14241 | -75.17663 | 36992 ft | 466 kts | 190° |
| 2026-05-07 14:10 | 7.07807 | -75.18644 | 36744 ft | 467 kts | 190° |
| 2026-05-07 14:10 | 7.04589 | -75.19133 | 36529 ft | 468 kts | 190° |
| 2026-05-07 14:11 | 7.01345 | -75.19436 | 36282 ft | 469 kts | 180° |
| 2026-05-07 14:11 | 6.98077 | -75.19307 | 36006 ft | 470 kts | 179° |
| 2026-05-07 14:11 | 6.94788 | -75.19132 | 35098 ft | 476 kts | 179° |
| 2026-05-07 14:11 | 6.91497 | -75.18967 | 34207 ft | 481 kts | 179° |
| 2026-05-07 14:12 | 6.88133 | -75.18801 | 33271 ft | 485 kts | 178° |
| 2026-05-07 14:12 | 6.84748 | -75.18634 | 32232 ft | 489 kts | 178° |
| 2026-05-07 14:12 | 6.81352 | -75.18467 | 31458 ft | 487 kts | 179° |
| 2026-05-07 14:12 | 6.77951 | -75.18299 | 30526 ft | 488 kts | 178° |
| 2026-05-07 14:13 | 6.74595 | -75.18132 | 29629 ft | 489 kts | 178° |
| 2026-05-07 14:13 | 6.71231 | -75.17961 | 28403 ft | 481 kts | 177° |
| 2026-05-07 14:13 | 6.67910 | -75.17794 | 27467 ft | 469 kts | 176° |
| 2026-05-07 14:13 | 6.64721 | -75.17636 | 26924 ft | 449 kts | 176° |
| 2026-05-07 14:14 | 6.61633 | -75.17483 | 26259 ft | 436 kts | 176° |
| 2026-05-07 14:14 | 6.58669 | -75.17333 | 25614 ft | 424 kts | 176° |
| 2026-05-07 14:14 | 6.55739 | -75.17186 | 24986 ft | 419 kts | 176° |
| 2026-05-07 14:14 | 6.52830 | -75.17035 | 24358 ft | 416 kts | 175° |
| 2026-05-07 14:15 | 6.49944 | -75.16885 | 23727 ft | 414 kts | 175° |
| 2026-05-07 14:15 | 6.47079 | -75.16736 | 23077 ft | 415 kts | 175° |
| 2026-05-07 14:15 | 6.44198 | -75.16589 | 22506 ft | 412 kts | 175° |
| 2026-05-07 14:15 | 6.41325 | -75.16480 | 21939 ft | 410 kts | 179° |
| 2026-05-07 14:16 | 6.38519 | -75.16761 | 21421 ft | 409 kts | 189° |
| 2026-05-07 14:16 | 6.35769 | -75.17455 | 20905 ft | 407 kts | 194° |
| 2026-05-07 14:16 | 6.33046 | -75.18204 | 20378 ft | 404 kts | 194° |
| 2026-05-07 14:16 | 6.30341 | -75.18943 | 19983 ft | 401 kts | 193° |
| 2026-05-07 14:17 | 6.27649 | -75.19674 | 19497 ft | 399 kts | 193° |
| 2026-05-07 14:17 | 6.24971 | -75.20397 | 19018 ft | 397 kts | 192° |
| 2026-05-07 14:17 | 6.22307 | -75.21114 | 18489 ft | 396 kts | 193° |
| 2026-05-07 14:17 | 6.19611 | -75.21843 | 17590 ft | 405 kts | 193° |
| 2026-05-07 14:18 | 6.16935 | -75.22574 | 17377 ft | 387 kts | 193° |
| 2026-05-07 14:18 | 6.14432 | -75.23264 | 17257 ft | 360 kts | 193° |
| 2026-05-07 14:18 | 6.12080 | -75.23909 | 16962 ft | 343 kts | 192° |
| 2026-05-07 14:18 | 6.09834 | -75.24523 | 16690 ft | 336 kts | 192° |
| 2026-05-07 14:19 | 6.07583 | -75.25137 | 16563 ft | 334 kts | 192° |
| 2026-05-07 14:19 | 6.05325 | -75.25750 | 16239 ft | 336 kts | 192° |
| 2026-05-07 14:19 | 6.03053 | -75.26364 | 15885 ft | 335 kts | 192° |
| 2026-05-07 14:19 | 6.00840 | -75.26963 | 15547 ft | 333 kts | 192° |
| 2026-05-07 14:20 | 5.98589 | -75.27574 | 15235 ft | 331 kts | 192° |
| 2026-05-07 14:20 | 5.96361 | -75.28181 | 14870 ft | 328 kts | 192° |
| 2026-05-07 14:20 | 5.94176 | -75.28778 | 14294 ft | 326 kts | 192° |
| 2026-05-07 14:20 | 5.92046 | -75.29363 | 14114 ft | 307 kts | 191° |
| 2026-05-07 14:21 | 5.90059 | -75.30004 | 13940 ft | 295 kts | 204° |
| 2026-05-07 14:21 | 5.88484 | -75.31276 | 13558 ft | 292 kts | 231° |
| 2026-05-07 14:21 | 5.87670 | -75.33126 | 13145 ft | 292 kts | 260° |
| 2026-05-07 14:21 | 5.87575 | -75.35161 | 12691 ft | 291 kts | 269° |
| 2026-05-07 14:22 | 5.87564 | -75.37168 | 12300 ft | 290 kts | 269° |
| 2026-05-07 14:22 | 5.87575 | -75.39168 | 12030 ft | 279 kts | 274° |
| 2026-05-07 14:22 | 5.88159 | -75.40962 | 11828 ft | 267 kts | 309° |
| 2026-05-07 14:22 | 5.89577 | -75.42037 | 11623 ft | 250 kts | 347° |
| 2026-05-07 14:23 | 5.91256 | -75.42218 | 11384 ft | 238 kts | 6° |
| 2026-05-07 14:23 | 5.92875 | -75.42182 | 11089 ft | 234 kts | 6° |
| 2026-05-07 14:23 | 5.94486 | -75.42171 | 10816 ft | 227 kts | 4° |
| 2026-05-07 14:23 | 5.96050 | -75.42179 | 10548 ft | 222 kts | 5° |
| 2026-05-07 14:24 | 5.97593 | -75.42188 | 10284 ft | 219 kts | 5° |
| 2026-05-07 14:24 | 5.99086 | -75.42199 | 10036 ft | 209 kts | 3° |
| 2026-05-07 14:24 | 6.00494 | -75.42210 | 9773 ft | 199 kts | 4° |
| 2026-05-07 14:24 | 6.01847 | -75.42220 | 9535 ft | 191 kts | 4° |
| 2026-05-07 14:25 | 6.03142 | -75.42227 | 9302 ft | 182 kts | 5° |
| 2026-05-07 14:25 | 6.04394 | -75.42235 | 9054 ft | 174 kts | 3° |
| 2026-05-07 14:25 | 6.05605 | -75.42243 | 8848 ft | 174 kts | 4° |
| 2026-05-07 14:25 | 6.06787 | -75.42249 | 8634 ft | 171 kts | 2° |
| 2026-05-07 14:26 | 6.07978 | -75.42256 | 8406 ft | 169 kts | 3° |
| 2026-05-07 14:26 | 6.09150 | -75.42264 | 8207 ft | 168 kts | 2° |
| 2026-05-07 14:26 | 6.10313 | -75.42273 | 7969 ft | 165 kts | 4° |
| 2026-05-07 14:26 | 6.11465 | -75.42282 | 7739 ft | 166 kts | 4° |
| 2026-05-07 14:27 | 6.12611 | -75.42289 | 7493 ft | 164 kts | 1° |
| 2026-05-07 14:27 | 6.13743 | -75.42293 | 7263 ft | 160 kts | 0° |
| 2026-05-07 14:27 | 6.14851 | -75.42302 | 7031 ft | 158 kts | 1° |
| 2026-05-07 14:27 | 6.15867 | -75.42307 | 6980 ft | 130 kts | 360° |
| 2026-05-07 14:28 | 6.16599 | -75.42314 | 7001 ft | 80 kts | 360° |
| 2026-05-07 14:28 | 6.16971 | -75.42340 | 7018 ft | 34 kts | 338° |
| 2026-05-07 14:28 | 6.17091 | -75.42399 | 7017 ft | 12 kts | 329° |
| 2026-05-07 14:28 | 6.17116 | -75.42414 | 7017 ft | 0 kts | 329° |
| 2026-05-07 14:29 | 6.17136 | -75.42426 | 7021 ft | 7 kts | 329° |
| 2026-05-07 14:29 | 6.17179 | -75.42455 | 7018 ft | 7 kts | 319° |
| 2026-05-07 14:29 | 6.17192 | -75.42490 | 7017 ft | 5 kts | 271° |
| 2026-05-07 14:29 | 6.17192 | -75.42527 | 7020 ft | 8 kts | 270° |
| 2026-05-07 14:30 | 6.17191 | -75.42572 | 7017 ft | 5 kts | 268° |
| 2026-05-07 14:30 | 6.17177 | -75.42612 | 7021 ft | 7 kts | 222° |
| 2026-05-07 14:30 | 6.17128 | -75.42615 | 7016 ft | 7 kts | 174° |
| 2026-05-07 14:30 | 6.17068 | -75.42629 | 7020 ft | 13 kts | 214° |
| 2026-05-07 14:31 | 6.16989 | -75.42690 | 7016 ft | 13 kts | 219° |
| 2026-05-07 14:31 | 6.16952 | -75.42737 | 7018 ft | 5 kts | 255° |
| 2026-05-07 14:31 | 6.16960 | -75.42750 | 7018 ft | 3 kts | 314° |
| 2026-05-07 14:31 | 6.16988 | -75.42766 | 7016 ft | 0 kts | 329° |